createdAt,value
2018-08-28T00:01:19.958Z,18.00
2018-08-28T00:03:49.846Z,17.91
2018-08-28T00:06:18.857Z,17.90
2018-08-28T00:08:51.441Z,17.95
2018-08-28T00:11:20.941Z,17.93
2018-08-28T00:13:50.880Z,17.83
2018-08-28T00:16:19.970Z,17.89
2018-08-28T00:18:49.153Z,17.78
2018-08-28T00:21:18.051Z,17.87
2018-08-28T00:23:46.937Z,17.89
2018-08-28T00:26:16.063Z,17.91
2018-08-28T00:28:44.961Z,17.91
2018-08-28T00:31:15.903Z,17.73
2018-08-28T00:33:44.916Z,17.70
2018-08-28T00:36:13.820Z,17.74
2018-08-28T00:38:42.822Z,17.86
2018-08-28T00:41:11.893Z,17.82
2018-08-28T00:43:40.849Z,17.74
2018-08-28T00:46:14.557Z,17.88
2018-08-28T00:48:55.613Z,17.90
2018-08-28T00:51:36.947Z,17.77
2018-08-28T00:54:09.752Z,17.70
2018-08-28T00:56:39.005Z,17.69
2018-08-28T00:59:08.393Z,17.81
2018-08-28T01:01:37.785Z,17.71
2018-08-28T01:04:07.747Z,17.69
2018-08-28T01:06:36.929Z,17.73
2018-08-28T01:09:07.033Z,17.74
2018-08-28T01:11:36.193Z,17.78
2018-08-28T01:14:09.007Z,17.63
2018-08-28T01:16:37.942Z,17.67
2018-08-28T01:19:11.345Z,17.74
2018-08-28T01:21:42.294Z,17.78
2018-08-28T01:24:11.174Z,17.83
2018-08-28T01:26:50.142Z,17.69
2018-08-28T01:29:21.111Z,17.73
2018-08-28T01:32:02.021Z,17.73
2018-08-28T01:34:46.973Z,17.66
2018-08-28T01:37:22.378Z,17.65
2018-08-28T01:39:52.298Z,17.65
2018-08-28T01:42:44.185Z,17.70
2018-08-28T01:45:13.117Z,17.69
2018-08-28T01:47:49.839Z,17.78
2018-08-28T01:50:18.722Z,17.81
2018-08-28T01:52:58.541Z,17.80
2018-08-28T01:55:30.870Z,17.86
2018-08-28T01:58:00.817Z,17.83
2018-08-28T02:00:36.924Z,17.78
2018-08-28T02:03:25.074Z,17.75
2018-08-28T02:09:00.212Z,17.79
2018-08-28T02:11:29.168Z,17.82
2018-08-28T02:14:03.977Z,17.70
2018-08-28T02:16:48.965Z,17.74
2018-08-28T02:19:30.337Z,17.75
2018-08-28T02:21:59.323Z,17.72
2018-08-28T02:24:29.269Z,17.71
2018-08-28T02:27:05.788Z,17.52
2018-08-28T02:29:46.732Z,17.51
2018-08-28T02:32:20.516Z,17.60
2018-08-28T02:34:49.598Z,17.62
2018-08-28T02:37:18.443Z,17.66
2018-08-28T02:42:40.576Z,17.61
2018-08-28T02:45:09.825Z,17.59
2018-08-28T02:47:42.710Z,17.54
2018-08-28T02:50:11.689Z,17.55
2018-08-28T02:52:47.499Z,17.52
2018-08-28T02:55:29.680Z,17.43
2018-08-28T02:57:58.545Z,17.51
2018-08-28T03:00:27.480Z,17.47
2018-08-28T03:02:56.673Z,17.47
2018-08-28T03:05:25.501Z,17.45
2018-08-28T03:07:54.373Z,17.48
2018-08-28T03:10:28.900Z,17.52
2018-08-28T03:13:03.733Z,17.49
2018-08-28T03:15:34.655Z,17.46
2018-08-28T03:18:03.600Z,17.44
2018-08-28T03:20:32.572Z,17.45
2018-08-28T03:23:01.518Z,17.41
2018-08-28T03:25:31.425Z,17.39
2018-08-28T03:28:00.434Z,17.39
2018-08-28T03:30:36.698Z,17.41
2018-08-28T03:33:09.867Z,17.31
2018-08-28T03:35:56.450Z,17.25
2018-08-28T03:38:31.815Z,17.30
2018-08-28T03:41:02.997Z,17.20
2018-08-28T03:43:33.050Z,17.11
2018-08-28T03:46:03.953Z,17.00
2018-08-28T03:48:33.013Z,17.13
2018-08-28T03:51:02.962Z,17.08
2018-08-28T03:53:35.125Z,17.02
2018-08-28T03:56:09.883Z,17.15
2018-08-28T03:58:50.162Z,17.19
2018-08-28T04:01:37.314Z,17.16
2018-08-28T04:04:06.322Z,17.17
2018-08-28T04:06:39.780Z,17.13
2018-08-28T04:09:28.614Z,17.20
2018-08-28T04:11:57.545Z,17.08
2018-08-28T04:14:26.424Z,17.12
2018-08-28T04:16:59.941Z,17.07
2018-08-28T04:19:29.892Z,17.16
2018-08-28T04:22:03.240Z,17.13
2018-08-28T04:24:36.072Z,17.06
2018-08-28T04:27:05.015Z,17.09
2018-08-28T04:29:34.957Z,17.06
2018-08-28T04:34:58.321Z,16.93
2018-08-28T04:37:33.107Z,16.81
2018-08-28T04:40:02.061Z,16.88
2018-08-28T04:42:33.060Z,16.89
2018-08-28T04:45:08.408Z,16.80
2018-08-28T04:47:37.425Z,16.82
2018-08-28T04:50:07.338Z,16.69
2018-08-28T04:52:37.295Z,16.78
2018-08-28T04:55:09.526Z,16.75
2018-08-28T04:57:38.516Z,16.85
2018-08-28T05:00:08.702Z,16.87
2018-08-28T05:02:41.001Z,16.78
2018-08-28T05:05:16.127Z,16.74
2018-08-28T05:07:48.394Z,16.78
2018-08-28T05:10:18.363Z,16.71
2018-08-28T05:12:51.863Z,16.75
2018-08-28T05:15:22.776Z,16.90
2018-08-28T05:17:57.753Z,16.78
2018-08-28T05:20:27.481Z,16.74
2018-08-28T05:22:56.420Z,16.82
2018-08-28T05:25:39.505Z,16.71
2018-08-28T05:28:08.677Z,16.72
2018-08-28T05:30:50.900Z,16.63
2018-08-28T05:33:26.104Z,16.69
2018-08-28T05:35:59.330Z,16.60
2018-08-28T05:38:30.281Z,16.72
2018-08-28T05:40:59.220Z,16.73
2018-08-28T05:43:33.831Z,16.78
2018-08-28T05:46:13.182Z,16.81
2018-08-28T05:48:45.429Z,16.76
2018-08-28T05:51:14.513Z,16.91
2018-08-28T05:53:43.530Z,16.92
2018-08-28T05:56:15.679Z,16.84
2018-08-28T05:58:58.252Z,16.72
2018-08-28T06:01:44.979Z,16.87
2018-08-28T06:04:17.901Z,16.87
2018-08-28T06:06:52.825Z,16.87
2018-08-28T06:09:21.809Z,17.00
2018-08-28T06:11:50.919Z,17.08
2018-08-28T06:14:20.414Z,17.03
2018-08-28T06:22:36.809Z,16.95
2018-08-28T06:25:05.731Z,16.94
2018-08-28T06:27:39.031Z,16.88
2018-08-28T06:30:20.260Z,16.97
2018-08-28T06:32:50.268Z,17.01
2018-08-28T06:35:21.429Z,17.00
2018-08-28T06:37:56.249Z,17.05
2018-08-28T06:40:29.964Z,17.08
2018-08-28T06:43:11.131Z,17.17
2018-08-28T06:45:50.163Z,17.18
2018-08-28T06:48:29.694Z,17.23
2018-08-28T06:51:02.942Z,17.21
2018-08-28T06:53:35.612Z,17.30
2018-08-28T06:56:04.600Z,17.09
2018-08-28T06:58:33.623Z,17.21
2018-08-28T07:01:03.885Z,17.24
2018-08-28T07:03:33.968Z,17.36
2018-08-28T07:06:09.432Z,17.41
2018-08-28T07:08:55.638Z,17.47
2018-08-28T07:11:30.391Z,17.43
2018-08-28T07:14:04.196Z,17.45
2018-08-28T07:16:37.891Z,17.45
2018-08-28T07:19:08.991Z,17.42
2018-08-28T07:21:42.877Z,17.43
2018-08-28T07:24:15.962Z,17.47
2018-08-28T07:26:46.509Z,17.56
2018-08-28T07:29:25.812Z,17.62
2018-08-28T07:31:56.869Z,17.70
2018-08-28T07:34:26.787Z,17.81
2018-08-28T07:36:55.704Z,17.85
2018-08-28T07:39:25.734Z,17.86
2018-08-28T07:41:54.716Z,17.85
2018-08-28T07:44:31.355Z,17.91
2018-08-28T07:47:07.914Z,17.95
2018-08-28T07:49:42.621Z,17.97
2018-08-28T07:52:13.497Z,18.02
2018-08-28T07:54:44.491Z,18.07
2018-08-28T07:57:17.016Z,18.14
2018-08-28T07:59:50.867Z,18.12
2018-08-28T08:02:25.964Z,18.17
2018-08-28T08:04:59.143Z,18.24
2018-08-28T08:07:28.051Z,18.23
2018-08-28T08:10:05.593Z,18.31
2018-08-28T08:12:35.674Z,18.41
2018-08-28T08:15:21.239Z,18.42
2018-08-28T08:18:09.051Z,18.50
2018-08-28T08:20:42.715Z,18.58
2018-08-28T08:23:20.591Z,18.60
2018-08-28T08:25:50.837Z,18.59
2018-08-28T08:28:21.770Z,18.54
2018-08-28T08:30:50.977Z,18.59
2018-08-28T08:33:25.562Z,18.70
2018-08-28T08:35:55.503Z,18.70
2018-08-28T08:38:25.043Z,18.79
2018-08-28T08:40:58.096Z,18.77
2018-08-28T08:43:28.133Z,18.81
2018-08-28T08:46:00.971Z,18.94
2018-08-28T08:48:33.552Z,19.00
2018-08-28T08:51:03.684Z,18.99
2018-08-28T08:53:32.852Z,19.09
2018-08-28T08:56:07.889Z,19.23
2018-08-28T08:58:36.833Z,19.21
2018-08-28T09:01:06.658Z,19.29
2018-08-28T09:03:35.842Z,19.36
2018-08-28T09:06:11.245Z,19.40
2018-08-28T09:08:43.898Z,19.52
2018-08-28T09:11:14.867Z,19.44
2018-08-28T09:13:44.878Z,19.42
2018-08-28T09:19:17.728Z,19.42
2018-08-28T09:21:53.097Z,19.54
2018-08-28T09:24:23.094Z,19.61
2018-08-28T09:26:59.789Z,19.65
2018-08-28T09:29:42.623Z,19.66
2018-08-28T09:32:12.115Z,19.53
2018-08-28T09:34:41.038Z,19.78
2018-08-28T09:37:10.018Z,19.77
2018-08-28T09:39:38.917Z,19.90
2018-08-28T09:42:07.855Z,19.80
2018-08-28T09:44:42.642Z,19.81
2018-08-28T09:47:15.365Z,19.80
2018-08-28T09:49:49.257Z,19.89
2018-08-28T09:52:20.387Z,19.90
2018-08-28T09:54:52.781Z,19.95
2018-08-28T09:57:28.727Z,19.98
2018-08-28T10:00:01.179Z,19.99
2018-08-28T10:02:30.320Z,19.97
2018-08-28T10:04:59.431Z,20.12
2018-08-28T10:07:28.392Z,20.08
2018-08-28T10:10:05.574Z,20.00
2018-08-28T10:12:37.927Z,20.05
2018-08-28T10:15:08.016Z,20.16
2018-08-28T10:17:41.733Z,20.25
2018-08-28T10:20:10.752Z,20.30
2018-08-28T10:22:40.684Z,20.35
2018-08-28T10:25:09.609Z,20.43
2018-08-28T10:27:40.566Z,20.26
2018-08-28T10:30:15.088Z,20.45
2018-08-28T10:32:44.742Z,20.62
2018-08-28T10:35:15.264Z,20.56
2018-08-28T10:37:44.237Z,20.54
2018-08-28T10:40:15.177Z,20.55
2018-08-28T10:42:45.282Z,20.52
2018-08-28T10:45:17.583Z,20.54
2018-08-28T10:47:59.027Z,20.65
2018-08-28T10:50:30.063Z,20.64
2018-08-28T10:53:00.293Z,20.76
2018-08-28T10:55:35.168Z,20.76
2018-08-28T10:58:08.505Z,20.59
2018-08-28T11:00:38.456Z,20.50
2018-08-28T11:03:12.264Z,20.50
2018-08-28T11:05:42.158Z,20.49
2018-08-28T11:08:13.490Z,20.48
2018-08-28T11:10:42.417Z,20.47
2018-08-28T11:13:11.557Z,20.49
2018-08-28T11:15:42.436Z,20.56
2018-08-28T11:18:17.223Z,20.62
2018-08-28T11:20:52.115Z,20.69
2018-08-28T11:23:26.136Z,20.85
2018-08-28T11:25:58.484Z,20.98
2018-08-28T11:28:30.963Z,20.98
2018-08-28T11:31:00.969Z,21.01
2018-08-28T11:33:40.067Z,21.13
2018-08-28T11:36:10.213Z,21.36
2018-08-28T11:38:46.559Z,21.36
2018-08-28T11:41:15.662Z,21.58
2018-08-28T11:43:50.845Z,21.52
2018-08-28T11:46:36.432Z,21.45
2018-08-28T11:49:05.453Z,21.63
2018-08-28T11:51:37.899Z,21.72
2018-08-28T11:54:07.136Z,21.78
2018-08-28T11:56:36.268Z,21.80
2018-08-28T11:59:08.387Z,21.63
2018-08-28T12:01:38.357Z,21.53
2018-08-28T12:04:08.398Z,21.79
2018-08-28T12:06:39.444Z,21.99
2018-08-28T12:09:09.121Z,22.10
2018-08-28T12:11:40.065Z,21.88
2018-08-28T12:14:14.394Z,21.78
2018-08-28T12:16:49.628Z,21.68
2018-08-28T12:19:30.835Z,21.53
2018-08-28T12:22:06.163Z,21.57
2018-08-28T12:24:39.383Z,22.00
2018-08-28T12:27:08.271Z,22.13
2018-08-28T12:29:38.342Z,21.98
2018-08-28T12:32:18.127Z,22.05
2018-08-28T12:34:51.478Z,21.69
2018-08-28T12:37:24.307Z,21.54
2018-08-28T12:39:53.257Z,22.01
2018-08-28T12:42:22.351Z,22.25
2018-08-28T12:44:54.852Z,22.49
2018-08-28T12:50:03.681Z,22.81
2018-08-28T12:52:32.660Z,22.99
2018-08-28T12:55:01.650Z,22.98
2018-08-28T12:57:31.486Z,23.06
2018-08-28T13:00:01.476Z,22.85
2018-08-28T13:02:47.783Z,22.92
2018-08-28T13:05:16.677Z,23.02
2018-08-28T13:07:45.593Z,23.09
2018-08-28T13:10:14.609Z,23.26
2018-08-28T13:12:45.512Z,23.11
2018-08-28T13:15:14.525Z,23.07
2018-08-28T13:17:43.585Z,23.23
2018-08-28T13:20:12.529Z,23.13
2018-08-28T13:22:41.643Z,23.08
2018-08-28T13:25:11.090Z,23.00
2018-08-28T13:27:49.528Z,22.95
2018-08-28T13:30:26.337Z,22.90
2018-08-28T13:32:55.270Z,22.86
2018-08-28T13:35:28.372Z,22.77
2018-08-28T13:38:03.422Z,22.84
2018-08-28T13:40:39.643Z,22.88
2018-08-28T13:43:09.437Z,22.77
2018-08-28T13:45:39.477Z,22.85
2018-08-28T13:48:13.104Z,22.84
2018-08-28T13:50:44.032Z,22.86
2018-08-28T13:53:18.795Z,22.92
2018-08-28T13:55:50.952Z,23.02
2018-08-28T13:58:20.074Z,22.74
2018-08-28T14:00:55.930Z,22.79
2018-08-28T14:03:24.825Z,22.94
2018-08-28T14:05:54.682Z,22.99
2018-08-28T14:08:24.621Z,23.00
2018-08-28T14:10:59.418Z,23.02
2018-08-28T14:13:28.432Z,23.05
2018-08-28T14:15:57.211Z,23.10
2018-08-28T14:18:29.711Z,23.21
2018-08-28T14:21:03.081Z,23.24
2018-08-28T14:23:35.529Z,23.10
2018-08-28T14:26:04.501Z,23.11
2018-08-28T14:28:34.459Z,23.25
2018-08-28T14:31:08.659Z,23.26
2018-08-28T14:33:38.598Z,23.39
2018-08-28T14:36:07.708Z,23.35
2018-08-28T14:38:40.730Z,23.48
2018-08-28T14:41:12.713Z,23.36
2018-08-28T14:43:45.640Z,23.26
2018-08-28T14:46:26.743Z,23.22
2018-08-28T14:48:59.690Z,23.13
2018-08-28T14:51:36.173Z,23.11
2018-08-28T14:54:06.379Z,23.09
2018-08-28T14:56:36.377Z,23.08
2018-08-28T14:59:10.905Z,23.21
2018-08-28T15:01:39.812Z,23.26
2018-08-28T15:04:09.859Z,23.19
2018-08-28T15:06:44.316Z,23.16
2018-08-28T15:09:13.390Z,23.11
2018-08-28T15:11:49.077Z,22.96
2018-08-28T15:14:35.992Z,22.95
2018-08-28T15:17:06.686Z,22.98
2018-08-28T15:19:38.099Z,23.06
2018-08-28T15:22:10.850Z,23.05
2018-08-28T15:24:40.221Z,23.12
2018-08-28T15:27:11.157Z,23.06
2018-08-28T15:29:40.143Z,23.07
2018-08-28T15:32:09.162Z,23.04
2018-08-28T15:34:38.159Z,23.08
2018-08-28T15:37:07.368Z,23.16
2018-08-28T15:39:37.340Z,23.18
2018-08-28T15:42:09.811Z,23.05
2018-08-28T15:44:38.869Z,23.06
2018-08-28T15:47:09.838Z,23.06
2018-08-28T15:49:38.958Z,22.99
2018-08-28T15:52:17.453Z,22.97
2018-08-28T15:54:46.770Z,23.11
2018-08-28T15:57:27.584Z,23.13
2018-08-28T16:00:02.247Z,23.04
2018-08-28T16:02:31.163Z,23.04
2018-08-28T16:05:02.179Z,23.03
2018-08-28T16:07:32.193Z,22.99
2018-08-28T16:10:02.170Z,22.96
2018-08-28T16:12:31.139Z,22.97
2018-08-28T16:15:00.175Z,23.05
2018-08-28T16:17:32.242Z,23.08
2018-08-28T16:20:01.271Z,23.03
2018-08-28T16:22:36.249Z,22.94
2018-08-28T16:25:06.248Z,22.91
2018-08-28T16:27:35.504Z,22.95
2018-08-28T16:30:08.574Z,22.88
2018-08-28T16:32:37.606Z,22.87
2018-08-28T16:35:07.967Z,22.93
2018-08-28T16:37:41.421Z,22.90
2018-08-28T16:40:11.039Z,22.92
2018-08-28T16:42:40.096Z,22.84
2018-08-28T16:45:09.017Z,22.88
2018-08-28T16:47:37.962Z,22.87
2018-08-28T16:50:06.862Z,22.84
2018-08-28T16:52:35.776Z,22.81
2018-08-28T16:55:04.833Z,22.84
2018-08-28T16:57:33.742Z,22.81
2018-08-28T17:00:03.606Z,22.71
2018-08-28T17:02:33.498Z,22.68
2018-08-28T17:05:02.582Z,22.64
2018-08-28T17:07:32.211Z,22.60
2018-08-28T17:10:02.483Z,22.66
2018-08-28T17:12:33.392Z,22.64
2018-08-28T17:15:02.468Z,22.56
2018-08-28T17:17:31.345Z,22.46
2018-08-28T17:20:00.250Z,22.39
2018-08-28T17:22:29.221Z,22.32
2018-08-28T17:24:58.449Z,22.30
2018-08-28T17:27:29.351Z,22.25
2018-08-28T17:29:59.463Z,22.18
2018-08-28T17:32:35.801Z,22.12
2018-08-28T17:35:04.746Z,22.08
2018-08-28T17:37:34.095Z,22.02
2018-08-28T17:40:03.010Z,21.96
2018-08-28T17:42:33.096Z,21.90
2018-08-28T17:45:01.960Z,21.84
2018-08-28T17:47:30.930Z,21.76
2018-08-28T17:50:00.829Z,21.71
2018-08-28T17:52:33.313Z,21.65
2018-08-28T17:55:02.189Z,21.58
2018-08-28T17:57:37.563Z,21.52
2018-08-28T18:00:12.402Z,21.42
2018-08-28T18:02:51.338Z,21.33
2018-08-28T18:05:22.237Z,21.30
2018-08-28T18:07:56.881Z,21.20
2018-08-28T18:10:27.179Z,21.13
2018-08-28T18:12:56.133Z,21.06
2018-08-28T18:15:25.031Z,20.99
2018-08-28T18:17:57.433Z,20.92
2018-08-28T18:20:40.115Z,20.85
2018-08-28T18:23:09.188Z,20.77
2018-08-28T18:25:40.080Z,20.68
2018-08-28T18:28:08.988Z,20.67
2018-08-28T18:30:43.536Z,20.57
2018-08-28T18:33:12.430Z,20.57
2018-08-28T18:35:44.549Z,20.50
2018-08-28T18:38:13.506Z,20.45
2018-08-28T18:40:42.412Z,20.37
2018-08-28T18:43:14.564Z,20.32
2018-08-28T18:45:43.510Z,20.28
2018-08-28T18:48:12.436Z,20.30
2018-08-28T18:50:48.519Z,20.26
2018-08-28T18:53:17.430Z,20.26
2018-08-28T18:55:47.398Z,20.18
2018-08-28T18:58:17.477Z,20.15
2018-08-28T19:00:46.402Z,20.14
2018-08-28T19:03:23.424Z,20.06
2018-08-28T19:05:52.361Z,20.00
2018-08-28T19:08:23.377Z,20.02
2018-08-28T19:10:53.345Z,20.00
2018-08-28T19:13:22.563Z,19.96
2018-08-28T19:15:51.502Z,19.92
2018-08-28T19:18:22.444Z,19.88
2018-08-28T19:20:51.476Z,19.86
2018-08-28T19:23:23.529Z,19.83
2018-08-28T19:25:57.360Z,19.79
2018-08-28T19:28:33.616Z,19.74
2018-08-28T19:31:03.057Z,19.75
2018-08-28T19:33:33.133Z,19.72
2018-08-28T19:36:04.088Z,19.71
2018-08-28T19:38:35.796Z,19.66
2018-08-28T19:41:04.944Z,19.64
2018-08-28T19:43:37.534Z,19.59
2018-08-28T19:46:10.460Z,19.54
2018-08-28T19:48:56.013Z,19.51
2018-08-28T19:51:26.976Z,19.53
2018-08-28T19:53:58.001Z,19.46
2018-08-28T19:56:34.131Z,19.45
2018-08-28T19:59:03.143Z,19.44
2018-08-28T20:01:35.354Z,19.41
2018-08-28T20:04:09.033Z,19.39
2018-08-28T20:06:38.990Z,19.37
2018-08-28T20:09:08.916Z,19.35
2018-08-28T20:11:38.356Z,19.37
2018-08-28T20:14:07.755Z,19.36
2018-08-28T20:16:38.392Z,19.31
2018-08-28T20:19:13.631Z,19.30
2018-08-28T20:21:48.368Z,19.29
2018-08-28T20:24:23.483Z,19.30
2018-08-28T20:26:53.222Z,19.30
2018-08-28T20:29:24.469Z,19.28
2018-08-28T20:32:02.623Z,19.27
2018-08-28T20:34:36.092Z,19.26
2018-08-28T20:37:06.301Z,19.22
2018-08-28T20:39:42.078Z,19.20
2018-08-28T20:42:14.306Z,19.18
2018-08-28T20:45:04.189Z,19.23
2018-08-28T20:47:34.168Z,19.24
2018-08-28T20:50:05.405Z,19.25
2018-08-28T20:52:40.827Z,19.26
2018-08-28T20:55:10.724Z,19.28
2018-08-28T20:57:39.642Z,19.27
2018-08-28T21:00:09.699Z,19.25
2018-08-28T21:02:46.628Z,19.22
2018-08-28T21:05:20.088Z,19.18
2018-08-28T21:07:50.033Z,19.21
2018-08-28T21:10:20.183Z,19.21
2018-08-28T21:12:51.567Z,19.22
2018-08-28T21:15:34.663Z,19.21
2018-08-28T21:18:07.521Z,19.21
2018-08-28T21:20:40.395Z,19.17
2018-08-28T21:23:11.512Z,19.19
2018-08-28T21:25:44.978Z,19.22
2018-08-28T21:28:13.937Z,19.24
2018-08-28T21:30:46.748Z,19.27
2018-08-28T21:33:17.797Z,19.21
2018-08-28T21:35:53.634Z,19.28
2018-08-28T21:38:36.782Z,19.23
2018-08-28T21:41:10.774Z,19.32
2018-08-28T21:43:41.822Z,19.28
2018-08-28T21:46:16.439Z,19.28
2018-08-28T21:48:58.966Z,19.21
2018-08-28T21:51:27.931Z,19.16
2018-08-28T21:53:58.736Z,19.19
2018-08-28T21:56:34.278Z,19.20
2018-08-28T21:59:08.791Z,19.19
2018-08-28T22:01:39.803Z,19.13
2018-08-28T22:04:16.239Z,19.15
2018-08-28T22:07:49.166Z,19.16
2018-08-28T22:10:20.157Z,19.15
2018-08-28T22:12:57.342Z,19.03
2018-08-28T22:15:27.251Z,19.08
2018-08-28T22:17:59.646Z,19.12
2018-08-28T22:20:32.581Z,19.08
2018-08-28T22:23:05.958Z,19.07
2018-08-28T22:25:34.932Z,19.11
2018-08-28T22:28:03.982Z,19.12
2018-08-28T22:30:32.881Z,19.12
2018-08-28T22:33:18.661Z,19.10
2018-08-28T22:35:47.646Z,19.08
2018-08-28T22:38:17.617Z,19.05
2018-08-28T22:40:46.629Z,18.99
2018-08-28T22:43:22.233Z,19.02
2018-08-28T22:46:11.498Z,19.10
2018-08-28T22:48:40.493Z,19.10
2018-08-28T22:51:12.909Z,18.96
2018-08-28T22:53:41.930Z,19.02
2018-08-28T22:56:10.842Z,18.98
2018-08-28T22:58:44.131Z,18.83
2018-08-28T23:01:17.849Z,18.87
2018-08-28T23:03:49.938Z,18.79
2018-08-28T23:06:19.804Z,18.79
2018-08-28T23:08:49.807Z,18.69
2018-08-28T23:11:24.103Z,18.72
2018-08-28T23:13:53.070Z,18.59
2018-08-28T23:16:23.999Z,18.56
2018-08-28T23:19:06.539Z,18.54
2018-08-28T23:21:48.091Z,18.51
2018-08-28T23:24:17.632Z,18.49
2018-08-28T23:26:54.199Z,18.44
2018-08-28T23:29:33.024Z,18.37
2018-08-28T23:32:06.255Z,18.27
2018-08-28T23:34:35.174Z,18.19
2018-08-28T23:37:21.540Z,18.07
2018-08-28T23:42:48.704Z,17.96
2018-08-28T23:45:23.539Z,17.91
2018-08-28T23:47:59.765Z,17.85
2018-08-28T23:50:29.809Z,17.74
2018-08-28T23:53:01.917Z,17.67
2018-08-28T23:55:31.153Z,17.62
2018-08-28T23:58:03.493Z,17.54
